Flight Track Log - Related Links

Times and Time Zones

All times are in EDT time to prevent confusion due to time zone crossing. See the DAL695 flight status page for this flight to view local times or setup timezone preferences in your user account.

Time Position Orientation Groundspeed Altitude Reporting Facility
EDT Latitude Longitude Course Direction KTS MPH feet Rate Location/Type
Thu 11:53:17 AM 40.6147 -73.7947 270° West 174 200 1,200  Level New York Center
Thu 11:53:55 AM 40.5833 -73.8333 223° Southwest 208 239 2,100 2,449 Climbing New York TRACON
Thu 11:54:55 AM 40.5333 -73.8833 217° Southwest 235 270 5,200 2,800 Climbing New York TRACON
Thu 11:55:55 AM 40.4667 -73.9167 201° Southwest 249 287 7,700 2,650 Climbing New York TRACON
Thu 11:56:00 AM 40.3351 -74.2527 232° Southwest  Level FlightAware Approximate
Thu 11:56:55 AM 40.4167 -73.9500 207° Southwest 253 291 10,500  Level New York TRACON
Thu 11:57:00 AM 40.2581 -74.3752 217° Southwest  Level FlightAware Approximate
Thu 11:58:00 AM 40.2000 -74.5052 270° West  Level FlightAware Approximate
Thu 11:58:01 AM 40.3500 -74.0333 224° Southwest 295 339 11,600  Level New York TRACON
Thu 11:58:18 AM 40.3467 -74.0689 263° West 309 356 11,800 1,792 Climbing New York Center
Thu 11:59:18 AM 40.3083 -74.1786 245° Southwest 364 419 13,900 2,450 Climbing New York Center
Thu 12:00:18 PM 40.2736 -74.2883 248° West 365 420 16,700 1,550 Climbing New York Center
Thu 12:01:18 PM 40.2369 -74.4008 247° West 359 413 17,000 99 Climbing New York Center
Thu 12:02:19 PM 40.2022 -74.5158 248° West 349 402 16,900 -50 Descending New York Center
Thu 12:03:19 PM 40.1942 -74.6350 265° West 338 389 16,900 1,017 Level New York Center
Thu 12:04:17 PM 40.1836 -74.7592 264° West 333 383 18,900 1,881 Climbing New York Center
Thu 12:05:17 PM 40.1753 -74.8811 265° West 340 391 20,600 1,339 Climbing New York Center
Thu 12:06:18 PM 40.1644 -75.0136 264° West 353 406 21,600 787 Climbing New York Center
Thu 12:07:19 PM 40.1511 -75.1486 263° West 366 421 22,200 1,289 Climbing New York Center
Thu 12:08:19 PM 40.1353 -75.2886 262° West 385 443 24,200 1,563 Climbing New York Center
Thu 12:09:18 PM 40.0789 -75.4044 238° Southwest 378 435 25,300 850 Climbing New York Center
Thu 12:10:19 PM 40.0139 -75.5194 234° Southwest 388 447 25,900 645 Climbing New York Center
Thu 12:11:19 PM 39.9422 -75.6364 231° Southwest 407 468 26,600 1,148 Climbing New York Center
Thu 12:13:22 PM 39.7944 -75.8725 231° Southwest 442 509 29,400 1,253 Climbing Washington Center
Thu 12:14:21 PM 39.7214 -75.9881 231° Southwest 435 501 30,400 1,050 Climbing Washington Center
Thu 12:15:22 PM 39.6481 -76.1061 231° Southwest 435 501 31,500 1,140 Climbing Washington Center
Thu 12:16:22 PM 39.5767 -76.2214 231° Southwest 425 489 32,700 893 Climbing Washington Center
Thu 12:17:23 PM 39.5031 -76.3283 228° Southwest 415 478 33,300 655 Climbing Washington Center
Thu 12:18:21 PM 39.4336 -76.4406 231° Southwest 410 472 34,000 353 Climbing Washington Center
Thu 12:19:22 PM 39.3658 -76.5714 236° Southwest 410 472 34,000  Level Washington Center
Thu 12:20:23 PM 39.2881 -76.6642 223° Southwest 410 472 34,000  Level Washington Center
Thu 12:21:21 PM 39.2161 -76.7756 230° Southwest 410 472 34,000  Level Washington Center
Thu 12:22:22 PM 39.1419 -76.8894 230° Southwest 410 472 34,000  Level Washington Center
Thu 12:23:22 PM 39.0614 -77.0139 230° Southwest 410 472 34,000  Level Washington Center
Thu 12:24:23 PM 38.9872 -77.1006 222° Southwest 410 472 34,000  Level Washington Center
Thu 12:25:23 PM 38.9006 -77.1919 219° Southwest 400 460 34,000  Level Washington Center
Thu 12:26:20 PM 38.8139 -77.2886 221° Southwest 411 473 34,000  Level Washington Center
Thu 12:27:21 PM 38.7269 -77.3825 220° Southwest 411 473 34,000  Level Washington Center
Thu 12:28:22 PM 38.6381 -77.4814 221° Southwest 416 479 34,000  Level Washington Center
Thu 12:29:23 PM 38.5531 -77.5747 221° Southwest 410 472 34,000  Level Washington Center
Thu 12:30:21 PM 38.4617 -77.6731 220° Southwest 408 470 34,000  Level Washington Center
Thu 12:31:22 PM 38.3744 -77.7714 221° Southwest 421 484 34,000  Level Washington Center
Thu 12:32:23 PM 38.2853 -77.8667 220° Southwest 426 490 34,000  Level Washington Center
Thu 12:33:23 PM 38.1958 -77.9644 221° Southwest 426 490 34,000  Level Washington Center
Thu 12:34:21 PM 38.1061 -78.0592 220° Southwest 426 490 34,000  Level Washington Center
Thu 12:35:21 PM 38.0167 -78.1564 221° Southwest 426 490 34,000  Level Washington Center
Thu 12:36:22 PM 37.9250 -78.2453 217° Southwest 426 490 34,000  Level Washington Center
Thu 12:37:23 PM 37.8292 -78.3367 217° Southwest 426 490 34,000  Level Washington Center
Thu 12:38:20 PM 37.7203 -78.4350 216° Southwest 441 507 34,000  Level Washington Center
Thu 12:39:21 PM 37.6244 -78.5258 217° Southwest 441 507 34,000  Level Washington Center
Thu 12:40:22 PM 37.5242 -78.6164 216° Southwest 441 507 34,000  Level Washington Center
Thu 12:41:23 PM 37.4300 -78.7042 217° Southwest 441 507 34,000  Level Washington Center
Thu 12:42:21 PM 37.3425 -78.7842 216° Southwest 441 507 34,000  Level Washington Center
Thu 12:43:22 PM 37.2461 -78.8689 215° Southwest 441 507 34,000  Level Washington Center
Thu 12:44:22 PM 37.1497 -78.9586 217° Southwest 441 507 34,000  Level Washington Center
Thu 12:45:23 PM 37.0533 -79.0506 217° Southwest 441 507 34,000  Level Washington Center
Thu 12:46:21 PM 36.9589 -79.1400 217° Southwest 441 507 34,000  Level Washington Center
Thu 12:47:22 PM 36.8558 -79.2364 217° Southwest 435 501 34,000  Level Washington Center
Thu 12:48:22 PM 36.7614 -79.3228 216° Southwest 435 501 34,000  Level Washington Center
Thu 12:49:23 PM 36.6669 -79.4114 217° Southwest 430 495 34,000  Level Washington Center
Thu 12:50:23 PM 36.5744 -79.4975 217° Southwest 430 495 34,000  Level Washington Center
Thu 12:51:21 PM 36.4883 -79.5758 216° Southwest 424 488 34,000  Level Washington Center
Thu 12:52:08 PM 36.4153 -79.6400 215° Southwest 428 493 34,000  Level Atlanta Center
Thu 12:53:08 PM 36.3206 -79.7278 217° Southwest 423 487 34,000  Level Atlanta Center
Thu 12:54:08 PM 36.2275 -79.8125 216° Southwest 423 487 34,000  Level Atlanta Center
Thu 12:55:08 PM 36.1222 -79.9053 215° Southwest 423 487 34,000  Level Atlanta Center
Thu 12:56:08 PM 36.0203 -79.9800 211° Southwest 423 487 34,000  Level Atlanta Center
Thu 12:57:08 PM 35.9092 -80.0214 197° South 418 481 34,000  Level Atlanta Center
Thu 12:58:08 PM 35.7956 -80.0550 193° South 423 487 34,000  Level Atlanta Center
Thu 12:59:08 PM 35.6922 -80.0908 196° South 423 487 34,000  Level Atlanta Center
Thu 01:00:08 PM 35.5767 -80.1297 195° South 434 499 34,000  Level Atlanta Center
Thu 01:01:08 PM 35.4611 -80.1683 195° South 434 499 34,000  Level Atlanta Center
Thu 01:02:08 PM 35.3331 -80.2072 194° South 434 499 34,000  Level Atlanta Center
Thu 01:03:08 PM 35.2153 -80.2458 195° South 434 499 34,000  Level Atlanta Center
Thu 01:05:11 PM 34.9764 -80.3236 195° South 432 497 34,000  Level Jacksonville Center
Thu 01:06:11 PM 34.8831 -80.3544 195° South 432 497 34,000  Level Jacksonville Center
Thu 01:07:11 PM 34.7400 -80.3989 194° South 441 507 34,000  Level Jacksonville Center
Thu 01:08:11 PM 34.6219 -80.4353 194° South 435 501 34,000  Level Jacksonville Center
Thu 01:09:11 PM 34.5017 -80.4739 195° South 435 501 34,000  Level Jacksonville Center
Thu 01:10:11 PM 34.3836 -80.5125 195° South 435 501 34,000  Level Jacksonville Center
Thu 01:11:11 PM 34.2611 -80.5483 194° South 440 506 34,000  Level Jacksonville Center
Thu 01:12:11 PM 34.1408 -80.5867 195° South 445 512 34,000  Level Jacksonville Center
Thu 01:13:11 PM 34.0206 -80.6250 195° South 450 518 34,000  Level Jacksonville Center
Thu 01:14:11 PM 33.8939 -80.6633 194° South 450 518 34,000  Level Jacksonville Center
Thu 01:15:11 PM 33.7736 -80.7014 195° South 450 518 34,000  Level Jacksonville Center
Thu 01:16:11 PM 33.6511 -80.7394 194° South 450 518 34,000  Level Jacksonville Center
Thu 01:17:11 PM 33.5286 -80.7797 195° South 455 524 34,000  Level Jacksonville Center
Thu 01:18:11 PM 33.4042 -80.8225 196° South 455 524 34,000  Level Jacksonville Center
Thu 01:19:11 PM 33.2794 -80.8578 193° South 455 524 34,000  Level Jacksonville Center
Thu 01:20:11 PM 33.1569 -80.8978 195° South 455 524 34,000  Level Jacksonville Center
Thu 01:21:11 PM 33.0344 -80.9350 194° South 455 524 34,000  Level Jacksonville Center
Thu 01:22:11 PM 32.9097 -80.9725 194° South 455 524 34,000  Level Jacksonville Center
Thu 01:23:11 PM 32.7850 -81.0097 194° South 455 524 34,000  Level Jacksonville Center
Thu 01:24:11 PM 32.6603 -81.0494 195° South 455 524 34,000  Level Jacksonville Center
Thu 01:25:11 PM 32.5378 -81.0864 194° South 455 524 34,000  Level Jacksonville Center
Thu 01:26:11 PM 32.4256 -81.1206 194° South 455 524 34,000  Level Jacksonville Center
Thu 01:27:11 PM 32.2819 -81.1600 193° South 469 540 34,000  Level Jacksonville Center
Thu 01:28:11 PM 32.1572 -81.1994 195° South 469 540 34,000  Level Jacksonville Center
Thu 01:29:11 PM 32.0278 -81.1992 180° South 461 531 34,000  Level Jacksonville Center
Thu 01:30:11 PM 31.8964 -81.1944 178° South 460 529 34,000  Level Jacksonville Center
Thu 01:31:11 PM 31.7753 -81.1917 179° South 460 529 34,000  Level Jacksonville Center
Thu 01:32:11 PM 31.6603 -81.1864 178° South 460 529 34,000  Level Jacksonville Center
Thu 01:33:11 PM 31.5203 -81.1817 178° South 460 529 34,000  Level Jacksonville Center
Thu 01:34:11 PM 31.4053 -81.1764 178° South 460 529 34,000 -50 Level Jacksonville Center
Thu 01:35:11 PM 31.2675 -81.1792 181° South 460 529 33,900  Descending Jacksonville Center
Thu 01:36:11 PM 31.1450 -81.2153 194° South 454 522 34,000 50 Climbing Jacksonville Center
Thu 01:37:11 PM 31.0264 -81.2611 198° South 452 520 34,000  Level Jacksonville Center
Thu 01:38:11 PM 30.9033 -81.2631 181° South 447 514 34,000  Level Jacksonville Center
Thu 01:39:11 PM 30.7794 -81.2119 160° South 443 510 34,000 -250 Level Jacksonville Center
Thu 01:40:11 PM 30.6578 -81.1658 162° South 449 517 33,500 -700 Descending Jacksonville Center
Thu 01:41:11 PM 30.5469 -81.1511 173° South 449 517 32,600 -1,150 Descending Jacksonville Center
Thu 01:42:11 PM 30.4194 -81.1486 179° South 449 517 31,200 -1,200 Descending Jacksonville Center
Thu 01:43:11 PM 30.2900 -81.1461 179° South 454 522 30,200 -1,000 Descending Jacksonville Center
Thu 01:44:11 PM 30.1667 -81.1411 178° South 460 529 29,200 -1,000 Descending Jacksonville Center
Thu 01:45:11 PM 30.0417 -81.1411 180° South 460 529 28,200 -1,300 Descending Jacksonville Center
Thu 01:46:11 PM 29.9183 -81.1383 179° South 460 529 26,600 -1,550 Descending Jacksonville Center
Thu 01:47:11 PM 29.7992 -81.1358 179° South 448 516 25,100 -1,800 Descending Jacksonville Center
Thu 01:48:11 PM 29.6844 -81.1306 178° South 427 491 23,000 -2,100 Descending Jacksonville Center
Thu 01:49:11 PM 29.5739 -81.1303 180° South 412 474 20,900 -2,100 Descending Jacksonville Center
Thu 01:50:11 PM 29.4567 -81.1228 177° South 393 452 18,800 -2,050 Descending Jacksonville Center
Thu 01:51:11 PM 29.3525 -81.1225 180° South 378 435 16,800 -2,000 Descending Jacksonville Center
Thu 01:52:11 PM 29.2542 -81.1147 176° South 361 415 14,800 -2,100 Descending Jacksonville Center
Thu 01:53:11 PM 29.1539 -81.1069 176° South 361 415 12,600 -1,450 Descending Jacksonville Center
Thu 01:54:11 PM 29.0619 -81.0992 176° South 344 396 11,900 -500 Descending Jacksonville Center
Thu 01:55:11 PM 28.9783 -81.0911 175° South 312 359 11,600 -950 Descending Jacksonville Center
Thu 01:56:11 PM 28.8967 -81.0783 172° South 307 353 10,000 -1,550 Descending Jacksonville Center
Thu 01:57:11 PM 28.8194 -81.0797 181° South 299 344 8,500 -1,100 Descending Jacksonville Center
Thu 01:58:11 PM 28.7703 -81.1375 226° Southwest 253 291 7,800 -1,050 Descending Jacksonville Center
Thu 01:59:11 PM 28.7250 -81.1903 226° Southwest 243 280 6,400 -1,350 Descending Jacksonville Center
Thu 02:00:11 PM 28.6819 -81.2383 224° Southwest 238 274 5,100 -1,400 Descending Jacksonville Center
Thu 02:01:11 PM 28.6406 -81.2817 223° Southwest 220 253 3,600 -1,250 Descending Jacksonville Center
Thu 02:02:11 PM 28.5864 -81.2850 183° South 190 219 2,600 -1,000 Descending Jacksonville Center

Login

Don't have an account? Register now (free) for customized features, flight alerts, and more!